Time;durP1;ratioP1;P1;durP2;ratioP2;P2;SDS_P1;SDS_P2;PMS_P1;PMS_P2;Temp;Humidity;BMP_temperature;BMP_pressure;BME280_temperature;BME280_humidity;BME280_pressure;Samples;Min_cycle;Max_cycle;Signal;HPM_P1;HPM_P2
2023/06/25 00:00:48;;;;;;;13.02;8.85;;;19.70;99.90;;;;;;5099706;28;20082;-59
2023/06/25 00:03:13;;;;;;;12.80;9.32;;;19.80;99.90;;;;;;5099761;28;20058;-59
2023/06/25 00:05:39;;;;;;;15.70;8.98;;;19.80;99.90;;;;;;5099551;28;20073;-59
2023/06/25 00:08:05;;;;;;;12.98;9.57;;;19.70;99.90;;;;;;5099504;28;20044;-59
2023/06/25 00:10:30;;;;;;;13.52;9.10;;;19.70;99.90;;;;;;5099316;28;20088;-59
2023/06/25 00:12:56;;;;;;;15.80;10.05;;;19.70;99.90;;;;;;5099588;28;20062;-59
2023/06/25 00:15:22;;;;;;;16.05;9.80;;;19.80;99.90;;;;;;5098353;28;20051;-59
2023/06/25 00:17:49;;;;;;;14.60;9.65;;;19.60;99.90;;;;;;5099286;28;20066;-58
2023/06/25 00:20:16;;;;;;;15.15;9.65;;;19.60;99.90;;;;;;5100212;28;20058;-59
2023/06/25 00:22:45;;;;;;;15.45;9.93;;;19.60;99.90;;;;;;5099284;28;20043;-58
2023/06/25 00:25:14;;;;;;;14.73;9.95;;;19.50;99.90;;;;;;5099351;28;20122;-59
2023/06/25 00:27:40;;;;;;;15.93;9.63;;;19.50;99.90;;;;;;5099386;28;20067;-58
2023/06/25 00:30:08;;;;;;;14.95;10.20;;;19.50;99.90;;;;;;5099393;28;20044;-59
2023/06/25 00:32:34;;;;;;;14.82;9.52;;;19.50;99.90;;;;;;5098750;28;20081;-59
2023/06/25 00:35:01;;;;;;;15.57;10.15;;;19.50;99.90;;;;;;5098969;28;20068;-59
2023/06/25 00:37:27;;;;;;;13.63;9.70;;;19.50;99.90;;;;;;5099164;28;20040;-59
2023/06/25 00:39:53;;;;;;;13.35;9.98;;;19.40;99.90;;;;;;5097942;28;20079;-59
2023/06/25 00:42:19;;;;;;;14.30;9.85;;;19.40;99.90;;;;;;5099232;28;20706;-59
2023/06/25 00:44:45;;;;;;;14.20;9.95;;;19.40;99.90;;;;;;5098863;28;20571;-59
2023/06/25 00:47:13;;;;;;;14.68;9.35;;;19.40;99.90;;;;;;5099072;28;20617;-58
2023/06/25 00:49:44;;;;;;;13.45;8.98;;;19.40;99.90;;;;;;5098867;28;20051;-59
2023/06/25 00:52:15;;;;;;;14.70;9.43;;;19.50;99.90;;;;;;5098522;28;20118;-59
2023/06/25 00:54:42;;;;;;;13.07;8.68;;;19.40;99.90;;;;;;5098988;28;20114;-59
2023/06/25 00:57:09;;;;;;;12.55;8.90;;;19.30;99.90;;;;;;5098518;28;20044;-59
2023/06/25 00:59:37;;;;;;;14.57;9.23;;;19.30;99.90;;;;;;5098524;28;20051;-59
2023/06/25 01:02:21;;;;;;;14.73;9.18;;;19.30;99.90;;;;;;5098455;28;20116;-59
2023/06/25 01:04:57;;;;;;;16.95;9.95;;;19.20;99.90;;;;;;5098529;28;20046;-59
2023/06/25 01:07:25;;;;;;;13.73;9.70;;;19.30;99.90;;;;;;5098682;28;20044;-59
2023/06/25 01:09:51;;;;;;;14.55;10.70;;;19.30;99.90;;;;;;5098455;28;20056;-58
2023/06/25 01:12:17;;;;;;;13.82;9.25;;;19.20;99.90;;;;;;5098730;28;20104;-59
2023/06/25 01:14:43;;;;;;;13.52;8.50;;;19.20;99.90;;;;;;5098532;28;20040;-59
2023/06/25 01:17:10;;;;;;;13.93;9.85;;;19.20;99.90;;;;;;5098461;28;20095;-59
2023/06/25 01:19:36;;;;;;;13.68;10.05;;;19.10;99.90;;;;;;5098112;28;20423;-59
2023/06/25 01:22:04;;;;;;;13.98;9.80;;;19.10;99.90;;;;;;5098352;28;20115;-59
2023/06/25 01:24:34;;;;;;;17.40;10.77;;;19.10;99.90;;;;;;5097100;28;20126;-59
2023/06/25 01:27:00;;;;;;;14.95;10.07;;;19.10;99.90;;;;;;5097885;28;20090;-58
2023/06/25 01:29:27;;;;;;;16.45;11.27;;;19.10;99.90;;;;;;5097870;28;20048;-58
2023/06/25 01:31:53;;;;;;;16.38;11.25;;;19.10;99.90;;;;;;5098085;28;20052;-58
2023/06/25 01:34:22;;;;;;;16.98;11.15;;;19.00;99.90;;;;;;5098045;28;20090;-59
2023/06/25 01:36:52;;;;;;;17.13;11.48;;;19.00;99.90;;;;;;5097574;28;20511;-59
2023/06/25 01:39:19;;;;;;;15.25;10.98;;;19.00;99.90;;;;;;5097730;28;20051;-59
2023/06/25 01:41:46;;;;;;;16.70;11.35;;;18.90;99.90;;;;;;5098093;28;20036;-59
2023/06/25 01:44:15;;;;;;;16.52;11.18;;;18.90;99.90;;;;;;5097960;28;20051;-59
2023/06/25 01:46:41;;;;;;;16.83;12.07;;;18.90;99.90;;;;;;5097930;28;20036;-59
2023/06/25 01:49:07;;;;;;;14.73;10.80;;;18.80;99.90;;;;;;5096645;28;20068;-59
2023/06/25 01:51:33;;;;;;;15.93;11.20;;;18.80;99.90;;;;;;5097961;28;20058;-59
2023/06/25 01:53:59;;;;;;;15.80;11.02;;;18.80;99.90;;;;;;5097836;28;20534;-59
2023/06/25 01:56:25;;;;;;;16.63;11.80;;;18.80;99.90;;;;;;5096057;28;20087;-59
2023/06/25 01:58:53;;;;;;;17.50;11.18;;;18.70;99.90;;;;;;5097990;28;20096;-59
2023/06/25 02:01:23;;;;;;;17.30;10.77;;;18.70;99.90;;;;;;5097777;28;20082;-58
2023/06/25 02:03:49;;;;;;;17.10;11.57;;;18.70;99.90;;;;;;5097718;28;20044;-58
2023/06/25 02:06:14;;;;;;;15.70;10.55;;;18.70;99.90;;;;;;5097319;28;20535;-59
2023/06/25 02:08:41;;;;;;;16.38;10.27;;;18.70;99.90;;;;;;5097857;28;20047;-58
2023/06/25 02:11:07;;;;;;;16.30;11.75;;;18.70;99.90;;;;;;5097584;28;20135;-59
2023/06/25 02:13:33;;;;;;;17.38;11.50;;;18.70;99.90;;;;;;5097425;28;20124;-59
2023/06/25 02:15:59;;;;;;;14.10;11.13;;;18.60;99.90;;;;;;5097892;28;20050;-59
2023/06/25 02:18:25;;;;;;;16.05;11.40;;;18.60;99.90;;;;;;5097605;28;20072;-59
2023/06/25 02:20:51;;;;;;;14.60;10.10;;;18.60;99.90;;;;;;5097486;28;20047;-58
2023/06/25 02:23:16;;;;;;;16.48;11.15;;;18.60;99.90;;;;;;5096121;28;20047;-58
2023/06/25 02:25:42;;;;;;;15.05;10.27;;;18.70;99.90;;;;;;5097655;28;20112;-59
2023/06/25 02:28:08;;;;;;;16.98;9.95;;;18.70;99.90;;;;;;5097463;28;20104;-59
2023/06/25 02:30:33;;;;;;;16.95;10.90;;;18.60;99.90;;;;;;5095993;28;20047;-59
2023/06/25 02:32:59;;;;;;;14.10;9.85;;;18.60;99.90;;;;;;5097801;28;20093;-59
2023/06/25 02:35:25;;;;;;;14.98;10.23;;;18.60;99.90;;;;;;5097437;28;20104;-59
2023/06/25 02:37:50;;;;;;;14.73;10.07;;;18.60;99.90;;;;;;5098844;28;20039;-59
2023/06/25 02:40:16;;;;;;;15.30;9.82;;;18.70;99.90;;;;;;5101371;28;20040;-59
2023/06/25 02:42:42;;;;;;;15.02;10.00;;;18.60;99.90;;;;;;5100918;28;20077;-59
2023/06/25 02:45:07;;;;;;;15.88;9.43;;;18.60;99.90;;;;;;5101270;28;20040;-59
2023/06/25 02:47:33;;;;;;;14.23;10.73;;;18.60;99.90;;;;;;5101153;28;20441;-58
2023/06/25 02:49:59;;;;;;;15.00;10.18;;;18.50;99.90;;;;;;5101583;28;20044;-58
2023/06/25 02:52:24;;;;;;;16.75;10.02;;;18.60;99.90;;;;;;5100790;28;20050;-59
2023/06/25 02:54:50;;;;;;;13.23;9.88;;;18.50;99.90;;;;;;5101112;28;20858;-58
2023/06/25 02:57:16;;;;;;;14.35;9.73;;;18.50;99.90;;;;;;5100846;28;20855;-59
2023/06/25 02:59:41;;;;;;;14.40;9.85;;;18.50;99.90;;;;;;5101008;28;20123;-59
2023/06/25 03:02:07;;;;;;;16.23;9.95;;;18.50;99.90;;;;;;5100749;28;20028;-59
2023/06/25 03:04:33;;;;;;;16.45;10.57;;;18.50;99.90;;;;;;5100951;28;20043;-58
2023/06/25 03:06:58;;;;;;;15.30;9.55;;;18.50;99.90;;;;;;5100535;28;20095;-58
2023/06/25 03:09:24;;;;;;;13.18;9.07;;;18.50;99.90;;;;;;5100343;28;20036;-58
2023/06/25 03:11:50;;;;;;;15.38;10.40;;;18.50;99.90;;;;;;5100881;28;20047;-58
2023/06/25 03:14:15;;;;;;;14.20;9.45;;;18.50;99.90;;;;;;5100753;28;20048;-58
2023/06/25 03:16:42;;;;;;;15.65;10.05;;;18.50;99.90;;;;;;5098895;28;20051;-58
2023/06/25 03:19:07;;;;;;;17.55;10.25;;;18.40;99.90;;;;;;5099002;28;20692;-58
2023/06/25 03:21:33;;;;;;;15.82;10.18;;;18.40;99.90;;;;;;5100820;28;20066;-58
2023/06/25 03:23:59;;;;;;;15.35;9.82;;;18.40;99.90;;;;;;5100469;28;20113;-58
2023/06/25 03:26:24;;;;;;;14.82;9.55;;;18.50;99.90;;;;;;5100093;28;20451;-58
2023/06/25 03:28:51;;;;;;;15.27;10.18;;;18.50;99.90;;;;;;5100779;28;20051;-57
2023/06/25 03:31:17;;;;;;;14.85;10.10;;;18.40;99.90;;;;;;5100483;28;20683;-58
2023/06/25 03:33:43;;;;;;;16.10;10.63;;;18.40;99.90;;;;;;5100070;28;20097;-58
2023/06/25 03:36:10;;;;;;;14.98;10.27;;;18.40;99.90;;;;;;5099992;28;20059;-58
2023/06/25 03:38:36;;;;;;;14.85;9.88;;;18.40;99.90;;;;;;5099978;28;20075;-58
2023/06/25 03:41:01;;;;;;;15.48;10.90;;;18.40;99.90;;;;;;5099945;28;20087;-59
2023/06/25 03:43:27;;;;;;;15.20;10.93;;;18.40;99.90;;;;;;5099742;28;20044;-58
2023/06/25 03:45:52;;;;;;;15.77;10.70;;;18.40;99.90;;;;;;5100405;28;20064;-58
2023/06/25 03:48:18;;;;;;;15.40;9.88;;;18.40;99.90;;;;;;5103305;28;20154;-58
2023/06/25 03:50:44;;;;;;;16.85;11.07;;;18.40;99.90;;;;;;5117109;28;20039;-58
2023/06/25 03:53:09;;;;;;;15.30;9.98;;;18.40;99.90;;;;;;5100856;28;20044;-58
2023/06/25 03:55:35;;;;;;;15.40;10.45;;;18.40;99.90;;;;;;5099890;28;20052;-58
2023/06/25 03:58:01;;;;;;;15.35;9.85;;;18.40;99.90;;;;;;5099691;28;20409;-58
2023/06/25 04:00:26;;;;;;;14.63;9.63;;;18.40;99.90;;;;;;5099522;28;20044;-59
2023/06/25 04:02:52;;;;;;;14.80;10.85;;;18.50;99.90;;;;;;5098760;28;20048;-58
2023/06/25 04:05:18;;;;;;;14.32;9.77;;;18.40;99.90;;;;;;5099451;28;20066;-58
2023/06/25 04:07:43;;;;;;;16.63;11.15;;;18.50;99.90;;;;;;5099619;28;20035;-58
2023/06/25 04:10:10;;;;;;;15.48;10.18;;;18.50;99.90;;;;;;5099610;28;20099;-58
2023/06/25 04:12:35;;;;;;;14.30;9.93;;;18.50;99.90;;;;;;5097811;28;20036;-57
2023/06/25 04:15:01;;;;;;;14.93;10.57;;;18.60;99.90;;;;;;5099301;28;20181;-58
2023/06/25 04:17:27;;;;;;;15.30;9.88;;;18.60;99.90;;;;;;5097996;28;20044;-58
2023/06/25 04:19:53;;;;;;;16.35;10.02;;;18.70;99.90;;;;;;5099832;28;20138;-58
2023/06/25 04:22:18;;;;;;;15.43;9.90;;;18.80;99.90;;;;;;5099159;28;20104;-58
2023/06/25 04:24:44;;;;;;;15.20;10.32;;;18.80;99.90;;;;;;5099141;28;20061;-58
2023/06/25 04:27:10;;;;;;;17.27;10.43;;;18.90;99.90;;;;;;5099559;28;20107;-58
2023/06/25 04:29:36;;;;;;;15.35;10.50;;;18.90;99.90;;;;;;5099038;28;20048;-59
2023/06/25 04:32:03;;;;;;;13.75;10.00;;;19.00;99.90;;;;;;5099019;28;20055;-58
2023/06/25 04:34:29;;;;;;;16.40;10.32;;;19.00;99.90;;;;;;5098979;28;20044;-58
2023/06/25 04:36:55;;;;;;;15.88;9.98;;;19.10;99.90;;;;;;5098887;28;20160;-58
2023/06/25 04:39:20;;;;;;;14.70;9.98;;;19.10;99.90;;;;;;5098725;28;20454;-58
2023/06/25 04:41:46;;;;;;;15.82;10.40;;;19.10;99.90;;;;;;5099458;28;20039;-58
2023/06/25 04:44:12;;;;;;;15.27;10.27;;;19.20;99.90;;;;;;5098972;28;20498;-58
2023/06/25 04:46:37;;;;;;;15.52;10.65;;;19.30;99.90;;;;;;5098841;28;20036;-58
2023/06/25 04:49:03;;;;;;;15.45;9.93;;;19.40;99.90;;;;;;5098998;28;20122;-58
2023/06/25 04:51:29;;;;;;;15.07;10.70;;;19.50;99.90;;;;;;5098942;28;20044;-58
2023/06/25 04:53:54;;;;;;;15.10;10.07;;;19.60;99.90;;;;;;5098569;28;20055;-58
2023/06/25 04:56:20;;;;;;;14.63;10.10;;;19.60;99.90;;;;;;5098329;28;20075;-57
2023/06/25 04:58:46;;;;;;;14.93;9.75;;;19.70;99.90;;;;;;5099068;28;20052;-59
2023/06/25 05:01:11;;;;;;;14.25;9.23;;;19.80;99.90;;;;;;5098209;28;20237;-58
2023/06/25 05:03:37;;;;;;;14.73;9.90;;;19.90;99.90;;;;;;5097204;28;20465;-58
2023/06/25 05:06:02;;;;;;;14.77;9.90;;;20.00;99.90;;;;;;5098397;28;20043;-58
2023/06/25 05:08:28;;;;;;;14.85;10.13;;;20.00;99.90;;;;;;5098475;28;20112;-59
2023/06/25 05:10:54;;;;;;;20.92;10.40;;;20.10;99.90;;;;;;5098521;28;20114;-58
2023/06/25 05:13:19;;;;;;;16.35;10.32;;;20.20;99.90;;;;;;5098530;28;20072;-58
2023/06/25 05:15:45;;;;;;;17.58;10.30;;;20.30;99.90;;;;;;5098897;28;20051;-59
2023/06/25 05:18:11;;;;;;;13.40;8.95;;;20.30;99.90;;;;;;5097225;28;20036;-59
2023/06/25 05:20:38;;;;;;;15.55;10.60;;;20.40;99.90;;;;;;5110919;28;20631;-58
2023/06/25 05:23:05;;;;;;;16.02;9.90;;;20.40;99.90;;;;;;5118646;28;20055;-58
2023/06/25 05:25:34;;;;;;;15.30;9.65;;;20.50;99.90;;;;;;5118806;28;20036;-58
2023/06/25 05:28:03;;;;;;;15.35;9.60;;;20.60;99.90;;;;;;5118515;27;20043;-58
2023/06/25 05:30:32;;;;;;;17.00;9.45;;;20.70;99.90;;;;;;5118313;28;20039;-59
2023/06/25 05:32:58;;;;;;;15.50;10.18;;;20.80;99.90;;;;;;5118992;28;20063;-58
2023/06/25 05:35:26;;;;;;;13.75;8.63;;;20.80;99.90;;;;;;5118431;28;20043;-58
2023/06/25 05:37:52;;;;;;;13.25;8.45;;;20.80;99.90;;;;;;5118059;28;20285;-58
2023/06/25 05:40:18;;;;;;;13.50;9.00;;;20.90;99.90;;;;;;5118592;28;20532;-58
2023/06/25 05:42:43;;;;;;;11.82;8.18;;;21.00;99.90;;;;;;5117876;28;20099;-58
2023/06/25 05:45:09;;;;;;;13.27;8.55;;;21.10;99.90;;;;;;5118457;28;20039;-59
2023/06/25 05:47:35;;;;;;;13.52;8.13;;;21.20;99.90;;;;;;5118037;28;20395;-58
2023/06/25 05:50:01;;;;;;;12.55;8.40;;;21.30;99.90;;;;;;5118349;28;20042;-59
2023/06/25 05:52:26;;;;;;;11.18;7.65;;;21.30;99.90;;;;;;5117984;28;20074;-58
2023/06/25 05:54:52;;;;;;;10.30;7.65;;;21.40;99.90;;;;;;5118562;28;20055;-58
2023/06/25 05:57:18;;;;;;;10.77;7.65;;;21.50;99.90;;;;;;5118368;28;20104;-58
2023/06/25 05:59:44;;;;;;;14.38;7.30;;;21.50;99.90;;;;;;5118414;28;20558;-59
2023/06/25 06:02:10;;;;;;;10.75;7.43;;;21.50;99.90;;;;;;5118230;28;20082;-58
2023/06/25 06:04:35;;;;;;;10.90;6.78;;;21.60;99.90;;;;;;5118054;28;20074;-59
2023/06/25 06:07:01;;;;;;;11.43;7.50;;;21.70;99.90;;;;;;5118369;28;20126;-59
2023/06/25 06:09:27;;;;;;;11.77;7.15;;;21.80;99.90;;;;;;5118032;28;20044;-58
2023/06/25 06:11:53;;;;;;;9.43;6.38;;;21.90;99.90;;;;;;5116016;28;20052;-59
2023/06/25 06:14:19;;;;;;;10.13;5.93;;;22.00;99.90;;;;;;5118927;28;20919;-58
2023/06/25 06:16:44;;;;;;;10.75;4.90;;;22.10;99.90;;;;;;5118733;28;20091;-57
2023/06/25 06:19:10;;;;;;;8.55;4.90;;;22.20;99.90;;;;;;5118143;28;20040;-58
2023/06/25 06:21:36;;;;;;;8.38;5.20;;;22.30;99.90;;;;;;5118331;28;20059;-58
2023/06/25 06:24:01;;;;;;;7.65;4.57;;;22.40;99.90;;;;;;5117002;28;20106;-58
2023/06/25 06:26:27;;;;;;;8.98;4.75;;;22.40;99.90;;;;;;5117389;28;20093;-59
2023/06/25 06:28:53;;;;;;;8.50;4.63;;;22.50;99.90;;;;;;5117656;28;20044;-58
2023/06/25 06:31:21;;;;;;;9.48;5.20;;;22.60;99.90;;;;;;5117860;28;20050;-58
2023/06/25 06:33:46;;;;;;;7.53;4.72;;;22.60;99.90;;;;;;5117326;28;20088;-58
2023/06/25 06:36:12;;;;;;;8.30;4.68;;;22.60;99.90;;;;;;5117085;28;20096;-58
2023/06/25 06:38:39;;;;;;;7.93;4.60;;;22.80;99.90;;;;;;5118141;28;20054;-58
2023/06/25 06:41:04;;;;;;;9.38;5.47;;;22.90;99.90;;;;;;5118277;28;20047;-59
2023/06/25 06:43:31;;;;;;;8.95;5.55;;;22.90;99.90;;;;;;5117910;28;20048;-58
2023/06/25 06:45:57;;;;;;;8.93;5.45;;;23.00;99.90;;;;;;5118524;28;20112;-58
2023/06/25 06:48:24;;;;;;;8.20;5.30;;;23.10;99.90;;;;;;5117412;28;20443;-58
2023/06/25 06:50:50;;;;;;;8.07;5.15;;;23.20;99.90;;;;;;5117786;28;20056;-58
2023/06/25 06:53:15;;;;;;;11.48;6.63;;;23.40;99.90;;;;;;5117756;28;20044;-58
2023/06/25 06:55:41;;;;;;;10.55;5.88;;;23.30;99.90;;;;;;5117726;28;20039;-59
2023/06/25 06:58:07;;;;;;;10.65;6.30;;;23.40;99.90;;;;;;5117944;28;20074;-57
2023/06/25 07:00:32;;;;;;;9.70;5.97;;;23.50;99.90;;;;;;5117364;28;20044;-57
2023/06/25 07:02:59;;;;;;;11.38;6.25;;;23.50;99.90;;;;;;5116818;28;20039;-58
2023/06/25 07:05:24;;;;;;;9.02;6.20;;;23.60;99.90;;;;;;5117656;28;20119;-58
2023/06/25 07:07:50;;;;;;;9.82;6.60;;;23.60;99.90;;;;;;5118112;28;20040;-58
2023/06/25 07:10:16;;;;;;;11.02;7.38;;;23.50;99.90;;;;;;5118053;28;20460;-58
2023/06/25 07:12:42;;;;;;;12.30;6.97;;;23.60;99.90;;;;;;5117732;28;20087;-58
2023/06/25 07:15:08;;;;;;;12.30;7.43;;;23.70;99.90;;;;;;5117418;28;20052;-58
2023/06/25 07:17:34;;;;;;;10.98;7.28;;;23.80;99.90;;;;;;5116831;28;20047;-59
2023/06/25 07:20:00;;;;;;;11.30;8.43;;;23.80;99.90;;;;;;5117639;28;20039;-58
2023/06/25 07:22:25;;;;;;;10.63;7.50;;;23.90;99.90;;;;;;5117235;28;20039;-58
2023/06/25 07:24:51;;;;;;;13.65;8.23;;;24.00;99.90;;;;;;5116624;28;20100;-58
2023/06/25 07:27:16;;;;;;;10.55;7.68;;;24.00;99.90;;;;;;5117660;28;20043;-59
2023/06/25 07:29:42;;;;;;;12.75;8.40;;;24.00;99.90;;;;;;5116223;28;20082;-59
2023/06/25 07:32:08;;;;;;;11.40;7.80;;;24.20;99.90;;;;;;5117081;28;20168;-58
2023/06/25 07:34:34;;;;;;;11.55;7.78;;;24.30;99.90;;;;;;5117177;28;20528;-58
2023/06/25 07:36:59;;;;;;;11.77;9.02;;;24.30;99.90;;;;;;5116252;27;20506;-59
2023/06/25 07:39:29;;;;;;;11.95;8.13;;;24.40;99.90;;;;;;5099555;28;20095;-59
2023/06/25 07:41:56;;;;;;;11.18;8.90;;;24.40;99.90;;;;;;5100778;28;20080;-59
2023/06/25 07:44:22;;;;;;;12.88;8.38;;;24.60;99.90;;;;;;5115156;28;20084;-58
2023/06/25 07:46:48;;;;;;;11.82;8.88;;;24.50;99.90;;;;;;5109463;28;20063;-58
2023/06/25 07:49:14;;;;;;;10.75;7.82;;;24.50;99.90;;;;;;5116844;28;20046;-59
2023/06/25 07:51:43;;;;;;;11.13;7.20;;;24.70;99.90;;;;;;5109061;28;20039;-59
2023/06/25 07:54:09;;;;;;;10.32;7.47;;;24.90;99.90;;;;;;5103373;28;20028;-59
2023/06/25 07:56:35;;;;;;;12.57;8.98;;;24.90;99.90;;;;;;5107598;28;20070;-59
2023/06/25 07:59:00;;;;;;;12.85;8.48;;;24.60;99.90;;;;;;5110680;28;20134;-59
2023/06/25 08:01:26;;;;;;;10.90;8.07;;;24.80;99.90;;;;;;5109230;28;20048;-58
2023/06/25 08:03:52;;;;;;;11.35;8.30;;;24.90;99.90;;;;;;5116025;28;20054;-58
2023/06/25 08:06:17;;;;;;;11.98;8.70;;;25.00;99.90;;;;;;5115920;28;20023;-59
2023/06/25 08:08:43;;;;;;;11.85;8.18;;;25.10;99.90;;;;;;5116009;28;20047;-59
2023/06/25 08:11:08;;;;;;;12.13;8.95;;;25.20;99.90;;;;;;5116442;28;20128;-59
2023/06/25 08:13:34;;;;;;;11.32;8.50;;;25.10;99.90;;;;;;5116284;28;20044;-59
2023/06/25 08:16:00;;;;;;;11.52;8.25;;;25.30;99.90;;;;;;5116655;28;20150;-58
2023/06/25 08:18:25;;;;;;;13.00;8.52;;;25.00;99.90;;;;;;5116717;28;20044;-59
2023/06/25 08:20:51;;;;;;;10.18;7.75;;;25.10;99.90;;;;;;5115886;28;20046;-58
2023/06/25 08:23:17;;;;;;;11.82;9.05;;;25.30;99.90;;;;;;5115663;28;20051;-59
2023/06/25 08:25:42;;;;;;;11.25;7.55;;;25.20;99.90;;;;;;5115118;28;20080;-58
2023/06/25 08:28:08;;;;;;;11.63;8.57;;;25.30;99.90;;;;;;5113051;28;20062;-59
2023/06/25 08:30:34;;;;;;;13.70;8.48;;;25.30;99.90;;;;;;5101659;28;20129;-59
2023/06/25 08:32:59;;;;;;;12.73;9.30;;;25.60;99.90;;;;;;5102189;28;20098;-59
2023/06/25 08:35:25;;;;;;;12.35;9.55;;;25.50;99.90;;;;;;5096558;28;20055;-58
2023/06/25 08:37:51;;;;;;;11.93;8.82;;;25.60;99.90;;;;;;5105659;28;20055;-59
2023/06/25 08:40:18;;;;;;;10.60;8.52;;;25.70;99.90;;;;;;5097417;28;20048;-59
2023/06/25 08:42:46;;;;;;;11.38;8.68;;;25.90;99.90;;;;;;5100144;28;20039;-59
2023/06/25 08:45:12;;;;;;;11.35;8.68;;;25.90;99.90;;;;;;5104088;28;20120;-59
2023/06/25 08:47:39;;;;;;;13.70;8.38;;;25.90;99.90;;;;;;5102045;28;20478;-59
2023/06/25 08:50:09;;;;;;;10.63;8.13;;;26.20;99.90;;;;;;5103434;28;20069;-58
2023/06/25 08:52:35;;;;;;;10.45;7.60;;;26.20;99.90;;;;;;5100222;28;20047;-59
2023/06/25 08:55:01;;;;;;;10.98;7.90;;;26.20;99.90;;;;;;5098421;28;20040;-59
2023/06/25 08:57:34;;;;;;;11.15;7.80;;;26.30;99.90;;;;;;5097227;27;20389;-59
2023/06/25 08:59:59;;;;;;;12.45;8.40;;;26.40;99.90;;;;;;5096681;28;20049;-59
2023/06/25 09:02:27;;;;;;;10.30;7.65;;;26.30;99.90;;;;;;5082260;28;20078;-59
2023/06/25 09:04:53;;;;;;;11.18;8.30;;;26.40;99.90;;;;;;5090329;28;20048;-59
2023/06/25 09:07:19;;;;;;;11.13;7.40;;;26.40;99.90;;;;;;5082652;28;20055;-59
2023/06/25 09:09:52;;;;;;;10.70;6.45;;;26.60;99.90;;;;;;5090539;28;20044;-59
2023/06/25 09:12:23;;;;;;;9.48;6.82;;;26.70;99.60;;;;;;5084755;28;20052;-59
2023/06/25 09:14:49;;;;;;;11.63;7.53;;;26.80;98.00;;;;;;5086196;28;20052;-59
2023/06/25 09:17:23;;;;;;;9.27;6.72;;;26.80;99.40;;;;;;5084595;28;20152;-59
2023/06/25 09:19:49;;;;;;;10.20;6.55;;;27.00;99.50;;;;;;5083065;28;20057;-59
2023/06/25 09:22:14;;;;;;;10.45;6.25;;;27.00;99.10;;;;;;5122414;28;20492;-59
2023/06/25 09:24:46;;;;;;;8.57;5.75;;;27.10;98.30;;;;;;5082607;28;20052;-59
2023/06/25 09:27:12;;;;;;;8.07;5.05;;;27.20;97.20;;;;;;5089595;28;20091;-59
2023/06/25 09:29:39;;;;;;;10.20;6.10;;;27.30;98.00;;;;;;5090793;28;20101;-59
2023/06/25 09:32:08;;;;;;;11.15;6.68;;;27.40;97.70;;;;;;5095457;28;20049;-59
2023/06/25 09:34:34;;;;;;;8.23;5.35;;;27.40;96.70;;;;;;5094004;28;20054;-59
2023/06/25 09:37:02;;;;;;;9.57;5.28;;;27.50;96.00;;;;;;5094543;28;20064;-59
2023/06/25 09:39:30;;;;;;;8.57;5.15;;;27.70;96.50;;;;;;5096745;28;20071;-60
2023/06/25 09:41:56;;;;;;;8.00;4.88;;;27.60;95.50;;;;;;5095132;28;20060;-60
2023/06/25 09:44:22;;;;;;;8.30;5.15;;;27.60;95.10;;;;;;5096434;28;20125;-60
2023/06/25 09:46:52;;;;;;;8.18;4.88;;;27.70;94.60;;;;;;5083482;28;20036;-59
2023/06/25 09:49:19;;;;;;;6.70;4.30;;;27.70;95.20;;;;;;5088711;28;20060;-59
2023/06/25 09:52:12;;;;;;;8.77;5.38;;;27.90;95.10;;;;;;5076207;28;20056;-59
2023/06/25 09:54:40;;;;;;;8.20;5.18;;;27.60;94.80;;;;;;5074924;28;20044;-59
2023/06/25 09:57:14;;;;;;;8.05;5.15;;;27.70;94.70;;;;;;5075826;28;20083;-59
2023/06/25 09:59:41;;;;;;;9.27;5.53;;;28.00;95.00;;;;;;5074742;28;20041;-59
2023/06/25 10:02:07;;;;;;;9.63;5.68;;;28.00;93.80;;;;;;5077189;28;20108;-59
2023/06/25 10:04:34;;;;;;;7.75;5.10;;;27.90;93.60;;;;;;5096421;28;20097;-59
2023/06/25 10:07:02;;;;;;;7.32;4.75;;;28.00;93.50;;;;;;5091744;28;20044;-59
2023/06/25 10:09:27;;;;;;;8.70;5.13;;;28.10;93.60;;;;;;5082811;28;20066;-59
2023/06/25 10:11:56;;;;;;;9.52;5.30;;;28.20;93.30;;;;;;5065896;28;20037;-59
2023/06/25 10:14:22;;;;;;;9.07;5.20;;;28.20;93.20;;;;;;5074958;28;20554;-59
2023/06/25 10:16:56;;;;;;;9.10;5.65;;;28.30;93.40;;;;;;5061533;28;20602;-59
2023/06/25 10:19:26;;;;;;;9.45;5.88;;;28.40;92.50;;;;;;5061986;28;20045;-59
2023/06/25 10:22:05;;;;;;;7.45;4.95;;;28.40;91.10;;;;;;5062742;28;20036;-59
2023/06/25 10:24:38;;;;;;;8.93;5.78;;;28.40;92.70;;;;;;5060781;28;20044;-59
2023/06/25 10:27:04;;;;;;;8.02;5.25;;;28.40;91.90;;;;;;5062046;28;20049;-60
2023/06/25 10:29:42;;;;;;;8.73;5.18;;;28.50;92.90;;;;;;5065930;28;20092;-59
2023/06/25 10:32:07;;;;;;;8.93;5.13;;;28.60;92.70;;;;;;5068846;28;20076;-59
2023/06/25 10:34:39;;;;;;;8.93;5.63;;;28.70;92.00;;;;;;5072963;28;20040;-60
2023/06/25 10:37:06;;;;;;;22.20;5.25;;;28.70;90.80;;;;;;5072121;28;20045;-59
2023/06/25 10:39:40;;;;;;;8.32;5.68;;;28.60;92.00;;;;;;5073708;28;20059;-59
2023/06/25 10:42:07;;;;;;;8.68;5.03;;;28.60;91.10;;;;;;5069377;28;20515;-59
2023/06/25 10:44:34;;;;;;;6.78;4.60;;;28.70;91.90;;;;;;5061967;28;20048;-59
2023/06/25 10:47:03;;;;;;;7.68;4.90;;;28.90;91.50;;;;;;5061433;28;20048;-59
2023/06/25 10:49:29;;;;;;;9.95;4.97;;;29.00;91.40;;;;;;5060763;28;20041;-59
2023/06/25 10:51:58;;;;;;;8.18;4.50;;;28.90;90.50;;;;;;5061873;28;20037;-59
2023/06/25 10:54:24;;;;;;;7.97;4.90;;;29.00;90.70;;;;;;5060412;28;20052;-59
2023/06/25 10:57:06;;;;;;;8.13;4.70;;;29.20;91.30;;;;;;5063623;28;20543;-59
2023/06/25 10:59:32;;;;;;;8.63;4.97;;;29.30;91.10;;;;;;5064572;28;20064;-59
2023/06/25 11:02:21;;;;;;;7.03;4.40;;;29.20;90.80;;;;;;5068825;28;20044;-58
2023/06/25 11:04:54;;;;;;;8.50;4.38;;;29.40;90.30;;;;;;5060374;28;20049;-60
2023/06/25 11:07:21;;;;;;;7.65;4.40;;;29.30;90.10;;;;;;5058781;28;20060;-58
2023/06/25 11:09:52;;;;;;;7.20;4.32;;;29.50;90.50;;;;;;5060517;28;20044;-58
2023/06/25 11:12:18;;;;;;;7.32;4.60;;;29.50;89.50;;;;;;5058590;28;20045;-56
2023/06/25 11:14:44;;;;;;;7.00;4.32;;;29.40;90.00;;;;;;5060506;28;20527;-57
2023/06/25 11:17:14;;;;;;;9.60;4.35;;;29.60;90.30;;;;;;5059388;28;20087;-58
2023/06/25 11:19:39;;;;;;;7.20;4.22;;;29.70;89.30;;;;;;5058045;28;20045;-57
2023/06/25 11:22:07;;;;;;;6.10;3.88;;;29.50;86.90;;;;;;5060297;28;20040;-57
2023/06/25 11:24:37;;;;;;;7.82;4.68;;;29.60;89.20;;;;;;5057962;28;20059;-57
2023/06/25 11:27:03;;;;;;;7.53;4.53;;;29.60;87.00;;;;;;5061873;28;20044;-58
2023/06/25 11:29:40;;;;;;;7.40;4.28;;;29.80;88.10;;;;;;5064438;28;20098;-57
2023/06/25 11:32:11;;;;;;;7.05;4.18;;;29.80;86.00;;;;;;5068215;28;20139;-58
2023/06/25 11:34:43;;;;;;;7.55;4.35;;;29.90;88.20;;;;;;5066887;28;20052;-57
2023/06/25 11:37:14;;;;;;;6.95;4.35;;;29.90;85.70;;;;;;5067839;28;20081;-56
2023/06/25 11:39:47;;;;;;;6.97;4.28;;;30.00;83.80;;;;;;5066547;28;20091;-57
2023/06/25 11:42:17;;;;;;;6.72;4.28;;;29.90;83.60;;;;;;5067297;28;20587;-55
2023/06/25 11:44:45;;;;;;;7.22;4.45;;;29.90;86.00;;;;;;5059016;28;20081;-58
2023/06/25 11:47:14;;;;;;;7.30;4.30;;;29.80;86.70;;;;;;5058173;28;20041;-58
2023/06/25 11:49:40;;;;;;;8.02;4.53;;;30.00;86.40;;;;;;5057821;28;20048;-57
2023/06/25 11:52:06;;;;;;;7.53;4.70;;;30.10;87.90;;;;;;5059133;28;20045;-57
2023/06/25 11:54:31;;;;;;;7.70;4.30;;;29.80;85.50;;;;;;5057321;28;20049;-58
2023/06/25 11:56:57;;;;;;;7.43;4.40;;;29.90;86.50;;;;;;5097377;28;20067;-57
2023/06/25 11:59:23;;;;;;;6.90;4.10;;;30.10;86.50;;;;;;5073815;28;20060;-58
2023/06/25 12:01:49;;;;;;;6.78;4.20;;;30.30;86.20;;;;;;5066294;28;20052;-58
2023/06/25 12:04:15;;;;;;;6.43;3.63;;;30.20;85.10;;;;;;5065463;28;20045;-57
2023/06/25 12:06:41;;;;;;;6.20;3.67;;;30.50;85.00;;;;;;5057824;28;20614;-58
2023/06/25 12:09:06;;;;;;;6.13;3.40;;;30.50;84.40;;;;;;5058833;28;20047;-57
2023/06/25 12:11:33;;;;;;;6.93;3.60;;;30.60;82.40;;;;;;5056976;28;20037;-58
2023/06/25 12:13:58;;;;;;;6.65;3.75;;;30.80;82.60;;;;;;5058939;28;20048;-57
2023/06/25 12:16:24;;;;;;;6.75;3.90;;;30.50;80.10;;;;;;5056785;28;20045;-57
2023/06/25 12:18:50;;;;;;;6.40;3.60;;;30.20;79.90;;;;;;5058780;28;20045;-58
2023/06/25 12:21:15;;;;;;;6.20;3.38;;;30.50;81.70;;;;;;5057912;28;20452;-57
2023/06/25 12:23:41;;;;;;;7.18;3.38;;;30.70;82.10;;;;;;5056350;28;20045;-58
2023/06/25 12:26:07;;;;;;;6.90;4.10;;;30.90;82.00;;;;;;5058778;28;20060;-57
2023/06/25 12:28:32;;;;;;;5.75;3.00;;;31.00;81.40;;;;;;5057202;28;20060;-58
2023/06/25 12:30:58;;;;;;;7.15;3.58;;;30.80;80.50;;;;;;5058296;28;20057;-58
2023/06/25 12:33:24;;;;;;;6.68;3.25;;;30.70;79.80;;;;;;5056712;28;20041;-58
2023/06/25 12:35:49;;;;;;;5.90;3.15;;;30.90;78.60;;;;;;5058448;28;20142;-58